Portada
METAR-TAF:

METAR-TAF

Aeroports :

Lar, Iran

latitud: 27-40-26N, longitud: 054-22-53E, altitud: 792 m

Observació

L'informe es va fer fa 37 minuts, a les 08:00 UTC
Vent 4 kt del Oest/Nord-Oest
Temperatura 22°C
Humitat 15%
Pressió 1019 hPa
Visibilitat 10 km o més
sense núvols per sota de 1500 mi sense presència de cumulonimbus.

METAR: OISL 120800Z 30004KT CAVOK 22/M06 Q1019

Hora: 12:07 (08:37 UTC)

Pronòstic

L'informe es va fer fa 2 hores i 57 minuts, a les 05:40 UTC
Pronòstic vàlid del 12 a les 06 UTC al 13 a les 12 UTC
Vent 6 kt del Oest/Nord-Oest
Visibilitat: 8000 m

TAF: OISL 120540Z 1206/1312 30006KT 8000 NSC

Observacions i pronòstics meteorològics de més de 4000 aeroports (METAR i TAF).

Les estacions disponibles són els punts grocs i vermells al mapa.

Posi el ratolí al punt desitjat per veure el nom de l'estació.

Feu clic per veure les observacions i els pronòstics meteorològics.

Per canviar el mapa: feu clic els botons verds amb una creu de color negre per apropar; al botó verd amb un guió per allunyar la imatge; o en les fletxes verdes per a mapes adjacents.


METAR-TAF: